sensor_id;sensor_type;location;lat;lon;timestamp;P1;durP1;ratioP1;P2;durP2;ratioP2
5912;SDS011;2982;42.684;23.356;2022-07-04T00:00:25;8.57;;;4.93;;
5912;SDS011;2982;42.684;23.356;2022-07-04T00:02:50;4.60;;;4.20;;
5912;SDS011;2982;42.684;23.356;2022-07-04T00:05:16;5.35;;;4.10;;
5912;SDS011;2982;42.684;23.356;2022-07-04T00:07:43;10.20;;;4.85;;
5912;SDS011;2982;42.684;23.356;2022-07-04T00:10:11;5.72;;;3.60;;
5912;SDS011;2982;42.684;23.356;2022-07-04T00:12:38;6.72;;;4.63;;
5912;SDS011;2982;42.684;23.356;2022-07-04T00:15:05;11.57;;;4.05;;
5912;SDS011;2982;42.684;23.356;2022-07-04T00:17:31;4.25;;;3.85;;
5912;SDS011;2982;42.684;23.356;2022-07-04T00:19:57;7.35;;;4.07;;
5912;SDS011;2982;42.684;23.356;2022-07-04T00:22:22;8.75;;;4.05;;
5912;SDS011;2982;42.684;23.356;2022-07-04T00:24:48;4.47;;;4.05;;
5912;SDS011;2982;42.684;23.356;2022-07-04T00:27:13;7.82;;;4.35;;
5912;SDS011;2982;42.684;23.356;2022-07-04T00:29:39;4.50;;;4.18;;
5912;SDS011;2982;42.684;23.356;2022-07-04T00:32:04;6.15;;;3.92;;
5912;SDS011;2982;42.684;23.356;2022-07-04T00:34:30;4.55;;;3.38;;
5912;SDS011;2982;42.684;23.356;2022-07-04T00:36:55;5.13;;;3.35;;
5912;SDS011;2982;42.684;23.356;2022-07-04T00:39:20;7.93;;;3.45;;
5912;SDS011;2982;42.684;23.356;2022-07-04T00:41:46;4.18;;;3.72;;
5912;SDS011;2982;42.684;23.356;2022-07-04T00:44:12;7.38;;;3.13;;
5912;SDS011;2982;42.684;23.356;2022-07-04T00:46:38;3.67;;;2.45;;
5912;SDS011;2982;42.684;23.356;2022-07-04T00:49:04;5.53;;;3.28;;
5912;SDS011;2982;42.684;23.356;2022-07-04T00:51:30;7.65;;;2.72;;
5912;SDS011;2982;42.684;23.356;2022-07-04T00:53:56;3.28;;;2.60;;
5912;SDS011;2982;42.684;23.356;2022-07-04T00:56:22;3.55;;;2.45;;
5912;SDS011;2982;42.684;23.356;2022-07-04T00:58:48;2.75;;;2.50;;
5912;SDS011;2982;42.684;23.356;2022-07-04T01:01:14;4.90;;;2.80;;
5912;SDS011;2982;42.684;23.356;2022-07-04T01:03:40;3.30;;;2.30;;
5912;SDS011;2982;42.684;23.356;2022-07-04T01:06:06;3.97;;;2.47;;
5912;SDS011;2982;42.684;23.356;2022-07-04T01:08:32;9.02;;;2.58;;
5912;SDS011;2982;42.684;23.356;2022-07-04T01:10:57;2.78;;;2.67;;
5912;SDS011;2982;42.684;23.356;2022-07-04T01:13:23;3.58;;;2.58;;
5912;SDS011;2982;42.684;23.356;2022-07-04T01:15:49;7.88;;;2.53;;
5912;SDS011;2982;42.684;23.356;2022-07-04T01:18:15;5.85;;;2.65;;
5912;SDS011;2982;42.684;23.356;2022-07-04T01:20:40;2.42;;;2.22;;
5912;SDS011;2982;42.684;23.356;2022-07-04T01:23:06;2.35;;;2.20;;
5912;SDS011;2982;42.684;23.356;2022-07-04T01:25:31;4.63;;;2.25;;
5912;SDS011;2982;42.684;23.356;2022-07-04T01:27:58;2.67;;;2.40;;
5912;SDS011;2982;42.684;23.356;2022-07-04T01:30:24;3.20;;;3.00;;
5912;SDS011;2982;42.684;23.356;2022-07-04T01:32:50;4.88;;;2.92;;
5912;SDS011;2982;42.684;23.356;2022-07-04T01:35:15;4.53;;;2.50;;
5912;SDS011;2982;42.684;23.356;2022-07-04T01:37:40;4.80;;;2.50;;
5912;SDS011;2982;42.684;23.356;2022-07-04T01:40:06;6.43;;;2.88;;
5912;SDS011;2982;42.684;23.356;2022-07-04T01:42:32;2.17;;;2.08;;
5912;SDS011;2982;42.684;23.356;2022-07-04T01:44:57;9.48;;;3.22;;
5912;SDS011;2982;42.684;23.356;2022-07-04T01:47:22;3.20;;;2.60;;
5912;SDS011;2982;42.684;23.356;2022-07-04T01:49:48;3.72;;;2.60;;
5912;SDS011;2982;42.684;23.356;2022-07-04T01:52:13;4.93;;;2.47;;
5912;SDS011;2982;42.684;23.356;2022-07-04T01:54:38;3.30;;;2.97;;
5912;SDS011;2982;42.684;23.356;2022-07-04T01:57:04;4.47;;;2.67;;
5912;SDS011;2982;42.684;23.356;2022-07-04T01:59:29;8.95;;;3.25;;
5912;SDS011;2982;42.684;23.356;2022-07-04T02:01:54;3.88;;;3.17;;
5912;SDS011;2982;42.684;23.356;2022-07-04T02:04:20;2.92;;;2.65;;
5912;SDS011;2982;42.684;23.356;2022-07-04T02:06:45;4.28;;;3.13;;
5912;SDS011;2982;42.684;23.356;2022-07-04T02:09:10;5.57;;;2.83;;
5912;SDS011;2982;42.684;23.356;2022-07-04T02:11:36;4.30;;;2.70;;
5912;SDS011;2982;42.684;23.356;2022-07-04T02:14:01;7.10;;;3.30;;
5912;SDS011;2982;42.684;23.356;2022-07-04T02:16:26;6.40;;;3.35;;
5912;SDS011;2982;42.684;23.356;2022-07-04T02:18:52;4.43;;;3.10;;
5912;SDS011;2982;42.684;23.356;2022-07-04T02:21:17;4.40;;;2.88;;
5912;SDS011;2982;42.684;23.356;2022-07-04T02:23:42;5.20;;;3.40;;
5912;SDS011;2982;42.684;23.356;2022-07-04T02:26:07;4.45;;;2.30;;
5912;SDS011;2982;42.684;23.356;2022-07-04T02:28:33;5.35;;;2.97;;
5912;SDS011;2982;42.684;23.356;2022-07-04T02:30:58;3.65;;;2.53;;
5912;SDS011;2982;42.684;23.356;2022-07-04T02:33:23;4.07;;;2.53;;
5912;SDS011;2982;42.684;23.356;2022-07-04T02:35:49;2.83;;;2.13;;
5912;SDS011;2982;42.684;23.356;2022-07-04T02:38:14;2.38;;;2.15;;
5912;SDS011;2982;42.684;23.356;2022-07-04T02:40:39;3.20;;;2.15;;
5912;SDS011;2982;42.684;23.356;2022-07-04T02:43:04;33.40;;;4.05;;
5912;SDS011;2982;42.684;23.356;2022-07-04T02:45:30;9.05;;;3.17;;
5912;SDS011;2982;42.684;23.356;2022-07-04T02:47:55;7.78;;;3.35;;
5912;SDS011;2982;42.684;23.356;2022-07-04T02:50:20;4.53;;;2.58;;
5912;SDS011;2982;42.684;23.356;2022-07-04T02:52:46;3.17;;;2.45;;
5912;SDS011;2982;42.684;23.356;2022-07-04T02:55:11;3.97;;;2.17;;
5912;SDS011;2982;42.684;23.356;2022-07-04T02:57:36;11.30;;;2.67;;
5912;SDS011;2982;42.684;23.356;2022-07-04T03:00:02;2.95;;;2.45;;
5912;SDS011;2982;42.684;23.356;2022-07-04T03:02:27;3.13;;;2.22;;
5912;SDS011;2982;42.684;23.356;2022-07-04T03:04:53;5.03;;;2.88;;
5912;SDS011;2982;42.684;23.356;2022-07-04T03:07:18;7.20;;;2.88;;
5912;SDS011;2982;42.684;23.356;2022-07-04T03:09:43;5.38;;;3.20;;
5912;SDS011;2982;42.684;23.356;2022-07-04T03:12:08;4.97;;;3.35;;
5912;SDS011;2982;42.684;23.356;2022-07-04T03:14:34;7.95;;;3.17;;
5912;SDS011;2982;42.684;23.356;2022-07-04T03:16:59;6.82;;;3.60;;
5912;SDS011;2982;42.684;23.356;2022-07-04T03:19:24;3.75;;;2.95;;
5912;SDS011;2982;42.684;23.356;2022-07-04T03:21:50;5.70;;;3.20;;
5912;SDS011;2982;42.684;23.356;2022-07-04T03:24:15;5.43;;;3.70;;
5912;SDS011;2982;42.684;23.356;2022-07-04T03:26:40;5.57;;;2.85;;
5912;SDS011;2982;42.684;23.356;2022-07-04T03:29:06;3.00;;;2.70;;
5912;SDS011;2982;42.684;23.356;2022-07-04T03:31:31;3.85;;;2.53;;
5912;SDS011;2982;42.684;23.356;2022-07-04T03:33:56;4.72;;;1.90;;
5912;SDS011;2982;42.684;23.356;2022-07-04T03:36:22;2.25;;;2.15;;
5912;SDS011;2982;42.684;23.356;2022-07-04T03:38:47;5.38;;;2.47;;
5912;SDS011;2982;42.684;23.356;2022-07-04T03:41:12;2.92;;;1.75;;
5912;SDS011;2982;42.684;23.356;2022-07-04T03:43:38;5.10;;;1.98;;
5912;SDS011;2982;42.684;23.356;2022-07-04T03:46:04;4.82;;;1.90;;
5912;SDS011;2982;42.684;23.356;2022-07-04T03:48:29;3.60;;;2.35;;
5912;SDS011;2982;42.684;23.356;2022-07-04T03:50:55;2.67;;;2.15;;
5912;SDS011;2982;42.684;23.356;2022-07-04T03:53:20;3.42;;;2.22;;
5912;SDS011;2982;42.684;23.356;2022-07-04T03:55:46;1.90;;;1.73;;
5912;SDS011;2982;42.684;23.356;2022-07-04T03:58:11;3.67;;;2.08;;
5912;SDS011;2982;42.684;23.356;2022-07-04T04:00:37;5.05;;;2.72;;
5912;SDS011;2982;42.684;23.356;2022-07-04T04:03:02;4.65;;;2.22;;
5912;SDS011;2982;42.684;23.356;2022-07-04T04:05:28;6.50;;;3.00;;
5912;SDS011;2982;42.684;23.356;2022-07-04T04:07:56;7.60;;;2.80;;
5912;SDS011;2982;42.684;23.356;2022-07-04T04:10:23;4.75;;;2.47;;
5912;SDS011;2982;42.684;23.356;2022-07-04T04:12:50;5.35;;;3.03;;
5912;SDS011;2982;42.684;23.356;2022-07-04T04:15:15;5.45;;;2.78;;
5912;SDS011;2982;42.684;23.356;2022-07-04T04:17:41;3.95;;;2.97;;
5912;SDS011;2982;42.684;23.356;2022-07-04T04:20:06;4.68;;;3.90;;
5912;SDS011;2982;42.684;23.356;2022-07-04T04:22:32;4.55;;;3.38;;
5912;SDS011;2982;42.684;23.356;2022-07-04T04:24:57;9.98;;;3.10;;
5912;SDS011;2982;42.684;23.356;2022-07-04T04:27:23;6.32;;;3.13;;
5912;SDS011;2982;42.684;23.356;2022-07-04T04:29:48;4.50;;;2.90;;
5912;SDS011;2982;42.684;23.356;2022-07-04T04:32:13;3.40;;;2.50;;
5912;SDS011;2982;42.684;23.356;2022-07-04T04:34:39;9.43;;;3.53;;
5912;SDS011;2982;42.684;23.356;2022-07-04T04:37:05;15.05;;;4.57;;
5912;SDS011;2982;42.684;23.356;2022-07-04T04:39:30;5.95;;;3.83;;
5912;SDS011;2982;42.684;23.356;2022-07-04T04:41:56;11.10;;;4.07;;
5912;SDS011;2982;42.684;23.356;2022-07-04T04:44:21;17.05;;;3.67;;
5912;SDS011;2982;42.684;23.356;2022-07-04T04:46:46;4.18;;;3.88;;
5912;SDS011;2982;42.684;23.356;2022-07-04T04:49:12;7.53;;;3.85;;
5912;SDS011;2982;42.684;23.356;2022-07-04T04:51:37;15.05;;;4.57;;
5912;SDS011;2982;42.684;23.356;2022-07-04T04:54:02;6.47;;;3.13;;
5912;SDS011;2982;42.684;23.356;2022-07-04T04:56:28;7.60;;;3.10;;
5912;SDS011;2982;42.684;23.356;2022-07-04T04:58:53;3.72;;;2.58;;
5912;SDS011;2982;42.684;23.356;2022-07-04T05:01:18;6.03;;;2.88;;
5912;SDS011;2982;42.684;23.356;2022-07-04T05:03:44;4.45;;;2.50;;
5912;SDS011;2982;42.684;23.356;2022-07-04T05:06:09;6.63;;;2.88;;
5912;SDS011;2982;42.684;23.356;2022-07-04T05:08:34;4.50;;;2.45;;
5912;SDS011;2982;42.684;23.356;2022-07-04T05:11:00;7.05;;;3.15;;
5912;SDS011;2982;42.684;23.356;2022-07-04T05:13:25;9.88;;;3.33;;
5912;SDS011;2982;42.684;23.356;2022-07-04T05:15:50;3.25;;;2.95;;
5912;SDS011;2982;42.684;23.356;2022-07-04T05:18:16;5.07;;;3.05;;
5912;SDS011;2982;42.684;23.356;2022-07-04T05:20:42;3.85;;;2.88;;
5912;SDS011;2982;42.684;23.356;2022-07-04T05:23:07;5.85;;;3.13;;
5912;SDS011;2982;42.684;23.356;2022-07-04T05:25:33;3.42;;;2.42;;
5912;SDS011;2982;42.684;23.356;2022-07-04T05:27:58;7.88;;;3.45;;
5912;SDS011;2982;42.684;23.356;2022-07-04T05:30:24;6.13;;;2.78;;
5912;SDS011;2982;42.684;23.356;2022-07-04T05:32:51;7.43;;;2.75;;
5912;SDS011;2982;42.684;23.356;2022-07-04T05:35:16;3.65;;;3.17;;
5912;SDS011;2982;42.684;23.356;2022-07-04T05:37:41;3.92;;;3.17;;
5912;SDS011;2982;42.684;23.356;2022-07-04T05:40:07;12.10;;;3.00;;
5912;SDS011;2982;42.684;23.356;2022-07-04T05:42:36;4.50;;;3.58;;
5912;SDS011;2982;42.684;23.356;2022-07-04T05:45:01;4.53;;;2.95;;
5912;SDS011;2982;42.684;23.356;2022-07-04T05:47:27;4.28;;;2.90;;
5912;SDS011;2982;42.684;23.356;2022-07-04T05:49:52;4.03;;;2.45;;
5912;SDS011;2982;42.684;23.356;2022-07-04T05:52:18;12.27;;;3.00;;
5912;SDS011;2982;42.684;23.356;2022-07-04T05:54:43;3.75;;;1.95;;
5912;SDS011;2982;42.684;23.356;2022-07-04T05:57:08;6.25;;;2.45;;
5912;SDS011;2982;42.684;23.356;2022-07-04T05:59:34;3.38;;;2.17;;
5912;SDS011;2982;42.684;23.356;2022-07-04T06:01:59;2.70;;;2.45;;
5912;SDS011;2982;42.684;23.356;2022-07-04T06:04:25;6.45;;;2.30;;
5912;SDS011;2982;42.684;23.356;2022-07-04T06:06:50;4.40;;;2.13;;
5912;SDS011;2982;42.684;23.356;2022-07-04T06:09:15;3.55;;;2.08;;
5912;SDS011;2982;42.684;23.356;2022-07-04T06:11:41;5.03;;;1.85;;
5912;SDS011;2982;42.684;23.356;2022-07-04T06:14:06;7.53;;;2.40;;
5912;SDS011;2982;42.684;23.356;2022-07-04T06:16:31;4.28;;;2.33;;
5912;SDS011;2982;42.684;23.356;2022-07-04T06:18:57;5.65;;;2.30;;
5912;SDS011;2982;42.684;23.356;2022-07-04T06:21:22;5.00;;;2.10;;
5912;SDS011;2982;42.684;23.356;2022-07-04T06:23:47;4.35;;;2.30;;
5912;SDS011;2982;42.684;23.356;2022-07-04T06:26:13;3.72;;;2.10;;
5912;SDS011;2982;42.684;23.356;2022-07-04T06:28:38;3.50;;;1.85;;
5912;SDS011;2982;42.684;23.356;2022-07-04T06:31:03;6.80;;;2.45;;
5912;SDS011;2982;42.684;23.356;2022-07-04T06:33:29;6.78;;;4.22;;
5912;SDS011;2982;42.684;23.356;2022-07-04T06:35:54;3.28;;;2.03;;
5912;SDS011;2982;42.684;23.356;2022-07-04T06:38:20;4.28;;;2.45;;
5912;SDS011;2982;42.684;23.356;2022-07-04T06:40:53;7.30;;;2.45;;
5912;SDS011;2982;42.684;23.356;2022-07-04T06:43:20;5.40;;;2.38;;
5912;SDS011;2982;42.684;23.356;2022-07-04T06:45:46;5.35;;;2.13;;
5912;SDS011;2982;42.684;23.356;2022-07-04T06:48:11;5.90;;;2.28;;
5912;SDS011;2982;42.684;23.356;2022-07-04T06:50:37;6.43;;;2.50;;
5912;SDS011;2982;42.684;23.356;2022-07-04T06:53:03;9.35;;;2.42;;
5912;SDS011;2982;42.684;23.356;2022-07-04T06:55:39;8.32;;;2.38;;
5912;SDS011;2982;42.684;23.356;2022-07-04T06:58:06;6.70;;;1.67;;
5912;SDS011;2982;42.684;23.356;2022-07-04T07:00:32;8.73;;;2.35;;
5912;SDS011;2982;42.684;23.356;2022-07-04T07:03:01;4.50;;;2.55;;
5912;SDS011;2982;42.684;23.356;2022-07-04T07:05:28;2.70;;;2.10;;
5912;SDS011;2982;42.684;23.356;2022-07-04T07:07:54;7.07;;;2.80;;
5912;SDS011;2982;42.684;23.356;2022-07-04T07:10:20;7.10;;;2.33;;
5912;SDS011;2982;42.684;23.356;2022-07-04T07:12:46;3.90;;;2.20;;
5912;SDS011;2982;42.684;23.356;2022-07-04T07:15:11;3.38;;;2.50;;
5912;SDS011;2982;42.684;23.356;2022-07-04T07:17:36;6.05;;;2.33;;
5912;SDS011;2982;42.684;23.356;2022-07-04T07:20:02;2.63;;;2.42;;
5912;SDS011;2982;42.684;23.356;2022-07-04T07:22:28;4.00;;;2.70;;
5912;SDS011;2982;42.684;23.356;2022-07-04T07:24:53;2.83;;;2.63;;
5912;SDS011;2982;42.684;23.356;2022-07-04T07:27:19;11.43;;;3.08;;
5912;SDS011;2982;42.684;23.356;2022-07-04T07:29:44;25.35;;;3.72;;
5912;SDS011;2982;42.684;23.356;2022-07-04T07:32:13;5.32;;;3.20;;
5912;SDS011;2982;42.684;23.356;2022-07-04T07:34:39;3.30;;;2.90;;
5912;SDS011;2982;42.684;23.356;2022-07-04T07:37:04;8.15;;;2.38;;
5912;SDS011;2982;42.684;23.356;2022-07-04T07:39:29;6.28;;;3.25;;
5912;SDS011;2982;42.684;23.356;2022-07-04T07:41:55;6.60;;;2.97;;
5912;SDS011;2982;42.684;23.356;2022-07-04T07:44:20;5.40;;;2.53;;
5912;SDS011;2982;42.684;23.356;2022-07-04T07:46:45;3.95;;;2.88;;
5912;SDS011;2982;42.684;23.356;2022-07-04T07:49:11;6.15;;;3.50;;
5912;SDS011;2982;42.684;23.356;2022-07-04T07:51:36;5.05;;;3.13;;
5912;SDS011;2982;42.684;23.356;2022-07-04T07:54:01;3.38;;;2.90;;
5912;SDS011;2982;42.684;23.356;2022-07-04T07:56:27;6.78;;;3.28;;
5912;SDS011;2982;42.684;23.356;2022-07-04T07:58:52;7.82;;;3.10;;
5912;SDS011;2982;42.684;23.356;2022-07-04T08:01:17;4.00;;;3.00;;
5912;SDS011;2982;42.684;23.356;2022-07-04T08:03:43;8.88;;;3.58;;
5912;SDS011;2982;42.684;23.356;2022-07-04T08:06:09;5.68;;;3.13;;
5912;SDS011;2982;42.684;23.356;2022-07-04T08:08:34;4.22;;;3.03;;
5912;SDS011;2982;42.684;23.356;2022-07-04T08:11:00;12.25;;;3.72;;
5912;SDS011;2982;42.684;23.356;2022-07-04T08:13:25;4.35;;;3.17;;
5912;SDS011;2982;42.684;23.356;2022-07-04T08:15:50;7.38;;;3.17;;
5912;SDS011;2982;42.684;23.356;2022-07-04T08:18:16;4.07;;;3.60;;
5912;SDS011;2982;42.684;23.356;2022-07-04T08:20:41;10.55;;;2.95;;
5912;SDS011;2982;42.684;23.356;2022-07-04T08:23:06;3.78;;;3.15;;
5912;SDS011;2982;42.684;23.356;2022-07-04T08:25:32;5.95;;;3.72;;
5912;SDS011;2982;42.684;23.356;2022-07-04T08:27:57;7.70;;;3.63;;
5912;SDS011;2982;42.684;23.356;2022-07-04T08:30:22;5.43;;;3.42;;
5912;SDS011;2982;42.684;23.356;2022-07-04T08:32:48;4.03;;;3.63;;
5912;SDS011;2982;42.684;23.356;2022-07-04T08:35:13;6.00;;;3.22;;
5912;SDS011;2982;42.684;23.356;2022-07-04T08:37:38;4.28;;;3.60;;
5912;SDS011;2982;42.684;23.356;2022-07-04T08:40:04;4.25;;;3.42;;
5912;SDS011;2982;42.684;23.356;2022-07-04T08:42:30;7.47;;;4.00;;
5912;SDS011;2982;42.684;23.356;2022-07-04T08:45:03;7.45;;;4.05;;
5912;SDS011;2982;42.684;23.356;2022-07-04T08:47:32;10.75;;;4.43;;
5912;SDS011;2982;42.684;23.356;2022-07-04T08:50:03;4.03;;;3.78;;
5912;SDS011;2982;42.684;23.356;2022-07-04T08:52:37;4.75;;;4.03;;
5912;SDS011;2982;42.684;23.356;2022-07-04T08:55:07;8.02;;;4.15;;
5912;SDS011;2982;42.684;23.356;2022-07-04T08:57:34;7.22;;;4.70;;
5912;SDS011;2982;42.684;23.356;2022-07-04T09:00:00;5.50;;;4.75;;
5912;SDS011;2982;42.684;23.356;2022-07-04T09:02:27;6.53;;;4.22;;
5912;SDS011;2982;42.684;23.356;2022-07-04T09:04:53;5.93;;;4.07;;
5912;SDS011;2982;42.684;23.356;2022-07-04T09:07:19;5.68;;;4.47;;
5912;SDS011;2982;42.684;23.356;2022-07-04T09:09:45;8.68;;;4.18;;
5912;SDS011;2982;42.684;23.356;2022-07-04T09:12:10;4.95;;;4.63;;
5912;SDS011;2982;42.684;23.356;2022-07-04T09:14:36;5.00;;;4.32;;
5912;SDS011;2982;42.684;23.356;2022-07-04T09:17:03;4.75;;;4.32;;
5912;SDS011;2982;42.684;23.356;2022-07-04T09:19:29;6.22;;;4.50;;
5912;SDS011;2982;42.684;23.356;2022-07-04T09:21:54;4.60;;;4.20;;
5912;SDS011;2982;42.684;23.356;2022-07-04T09:24:40;4.70;;;4.30;;
5912;SDS011;2982;42.684;23.356;2022-07-04T09:27:30;8.68;;;4.65;;
5912;SDS011;2982;42.684;23.356;2022-07-04T09:29:59;4.13;;;3.85;;
5912;SDS011;2982;42.684;23.356;2022-07-04T09:32:38;5.78;;;4.70;;
5912;SDS011;2982;42.684;23.356;2022-07-04T09:35:06;5.05;;;4.43;;
5912;SDS011;2982;42.684;23.356;2022-07-04T09:37:37;4.40;;;3.95;;
5912;SDS011;2982;42.684;23.356;2022-07-04T09:40:05;4.93;;;3.63;;
5912;SDS011;2982;42.684;23.356;2022-07-04T09:42:39;6.72;;;3.78;;
5912;SDS011;2982;42.684;23.356;2022-07-04T09:45:07;6.55;;;3.85;;
5912;SDS011;2982;42.684;23.356;2022-07-04T09:47:33;7.05;;;3.38;;
5912;SDS011;2982;42.684;23.356;2022-07-04T09:50:03;11.98;;;4.05;;
5912;SDS011;2982;42.684;23.356;2022-07-04T09:52:46;15.20;;;3.92;;
5912;SDS011;2982;42.684;23.356;2022-07-04T09:55:12;4.38;;;3.97;;
5912;SDS011;2982;42.684;23.356;2022-07-04T09:57:37;4.47;;;4.18;;
5912;SDS011;2982;42.684;23.356;2022-07-04T10:00:25;10.68;;;4.43;;
5912;SDS011;2982;42.684;23.356;2022-07-04T10:02:50;5.35;;;4.53;;
5912;SDS011;2982;42.684;23.356;2022-07-04T10:05:23;4.68;;;4.28;;
5912;SDS011;2982;42.684;23.356;2022-07-04T10:07:51;7.70;;;4.88;;
5912;SDS011;2982;42.684;23.356;2022-07-04T10:10:26;4.57;;;4.03;;
5912;SDS011;2982;42.684;23.356;2022-07-04T10:13:09;4.65;;;4.35;;
5912;SDS011;2982;42.684;23.356;2022-07-04T10:15:39;5.15;;;4.03;;
5912;SDS011;2982;42.684;23.356;2022-07-04T10:18:07;5.30;;;4.80;;
5912;SDS011;2982;42.684;23.356;2022-07-04T10:20:33;7.05;;;3.83;;
5912;SDS011;2982;42.684;23.356;2022-07-04T10:22:59;8.23;;;4.15;;
5912;SDS011;2982;42.684;23.356;2022-07-04T10:25:25;5.00;;;4.60;;
5912;SDS011;2982;42.684;23.356;2022-07-04T10:27:51;5.40;;;4.18;;
5912;SDS011;2982;42.684;23.356;2022-07-04T10:30:26;5.03;;;4.57;;
5912;SDS011;2982;42.684;23.356;2022-07-04T10:32:55;5.05;;;4.55;;
5912;SDS011;2982;42.684;23.356;2022-07-04T10:38:28;9.63;;;5.13;;
5912;SDS011;2982;42.684;23.356;2022-07-04T10:40:58;7.22;;;5.35;;
5912;SDS011;2982;42.684;23.356;2022-07-04T10:45:55;4.72;;;4.32;;
5912;SDS011;2982;42.684;23.356;2022-07-04T10:48:24;5.00;;;4.60;;
5912;SDS011;2982;42.684;23.356;2022-07-04T10:53:28;5.22;;;4.82;;
5912;SDS011;2982;42.684;23.356;2022-07-04T10:56:02;5.57;;;4.72;;
5912;SDS011;2982;42.684;23.356;2022-07-04T10:58:48;7.45;;;4.95;;
5912;SDS011;2982;42.684;23.356;2022-07-04T11:01:15;5.78;;;5.28;;
5912;SDS011;2982;42.684;23.356;2022-07-04T11:03:45;5.07;;;4.88;;
5912;SDS011;2982;42.684;23.356;2022-07-04T11:12:01;6.15;;;5.55;;
5912;SDS011;2982;42.684;23.356;2022-07-04T11:17:11;7.38;;;5.25;;
5912;SDS011;2982;42.684;23.356;2022-07-04T11:19:38;5.22;;;4.88;;
5912;SDS011;2982;42.684;23.356;2022-07-04T11:22:05;6.93;;;4.93;;
5912;SDS011;2982;42.684;23.356;2022-07-04T11:24:31;9.70;;;4.90;;
5912;SDS011;2982;42.684;23.356;2022-07-04T11:26:57;5.32;;;4.72;;
5912;SDS011;2982;42.684;23.356;2022-07-04T11:29:23;6.25;;;4.75;;
5912;SDS011;2982;42.684;23.356;2022-07-04T11:31:49;5.38;;;4.88;;
5912;SDS011;2982;42.684;23.356;2022-07-04T11:34:17;8.45;;;5.22;;
5912;SDS011;2982;42.684;23.356;2022-07-04T11:36:43;5.93;;;5.00;;
5912;SDS011;2982;42.684;23.356;2022-07-04T11:39:11;6.50;;;4.72;;
5912;SDS011;2982;42.684;23.356;2022-07-04T11:44:05;5.90;;;4.53;;
5912;SDS011;2982;42.684;23.356;2022-07-04T11:46:32;6.15;;;5.05;;
5912;SDS011;2982;42.684;23.356;2022-07-04T11:49:10;6.03;;;4.78;;
5912;SDS011;2982;42.684;23.356;2022-07-04T11:51:43;9.05;;;5.10;;
5912;SDS011;2982;42.684;23.356;2022-07-04T11:54:12;5.30;;;4.75;;
5912;SDS011;2982;42.684;23.356;2022-07-04T11:56:38;5.72;;;4.93;;
5912;SDS011;2982;42.684;23.356;2022-07-04T11:59:10;6.03;;;4.10;;
5912;SDS011;2982;42.684;23.356;2022-07-04T12:01:42;5.00;;;4.57;;
5912;SDS011;2982;42.684;23.356;2022-07-04T12:06:38;5.32;;;4.85;;
5912;SDS011;2982;42.684;23.356;2022-07-04T12:09:03;5.55;;;5.05;;
5912;SDS011;2982;42.684;23.356;2022-07-04T12:14:21;5.28;;;4.43;;
5912;SDS011;2982;42.684;23.356;2022-07-04T12:16:47;5.05;;;4.78;;
5912;SDS011;2982;42.684;23.356;2022-07-04T12:19:12;5.15;;;4.43;;
5912;SDS011;2982;42.684;23.356;2022-07-04T12:21:38;7.13;;;4.82;;
5912;SDS011;2982;42.684;23.356;2022-07-04T12:24:04;5.78;;;5.15;;
5912;SDS011;2982;42.684;23.356;2022-07-04T12:26:33;8.57;;;5.40;;
5912;SDS011;2982;42.684;23.356;2022-07-04T12:28:58;5.45;;;4.90;;
5912;SDS011;2982;42.684;23.356;2022-07-04T12:31:40;5.32;;;4.93;;
5912;SDS011;2982;42.684;23.356;2022-07-04T12:34:13;4.90;;;4.50;;
5912;SDS011;2982;42.684;23.356;2022-07-04T12:39:33;6.00;;;5.50;;
5912;SDS011;2982;42.684;23.356;2022-07-04T12:42:14;5.30;;;4.82;;
5912;SDS011;2982;42.684;23.356;2022-07-04T12:44:41;4.90;;;4.43;;
5912;SDS011;2982;42.684;23.356;2022-07-04T12:47:08;8.05;;;4.38;;
5912;SDS011;2982;42.684;23.356;2022-07-04T12:49:35;6.30;;;4.78;;
5912;SDS011;2982;42.684;23.356;2022-07-04T12:52:04;4.75;;;4.40;;
5912;SDS011;2982;42.684;23.356;2022-07-04T12:54:31;5.72;;;4.43;;
5912;SDS011;2982;42.684;23.356;2022-07-04T12:57:03;5.70;;;5.25;;
5912;SDS011;2982;42.684;23.356;2022-07-04T12:59:30;7.88;;;4.45;;
5912;SDS011;2982;42.684;23.356;2022-07-04T13:01:55;7.05;;;4.88;;
5912;SDS011;2982;42.684;23.356;2022-07-04T13:04:20;5.30;;;4.90;;
5912;SDS011;2982;42.684;23.356;2022-07-04T13:06:46;5.25;;;4.78;;
5912;SDS011;2982;42.684;23.356;2022-07-04T13:09:11;11.02;;;5.78;;
5912;SDS011;2982;42.684;23.356;2022-07-04T13:11:36;5.53;;;4.53;;
5912;SDS011;2982;42.684;23.356;2022-07-04T13:14:02;5.47;;;5.07;;
5912;SDS011;2982;42.684;23.356;2022-07-04T13:16:27;4.78;;;4.43;;
5912;SDS011;2982;42.684;23.356;2022-07-04T13:18:52;5.50;;;5.03;;
5912;SDS011;2982;42.684;23.356;2022-07-04T13:21:18;5.13;;;4.57;;
5912;SDS011;2982;42.684;23.356;2022-07-04T13:23:43;6.55;;;5.00;;
5912;SDS011;2982;42.684;23.356;2022-07-04T13:26:08;5.57;;;5.05;;
5912;SDS011;2982;42.684;23.356;2022-07-04T13:28:34;7.90;;;4.78;;
5912;SDS011;2982;42.684;23.356;2022-07-04T13:30:59;5.45;;;4.88;;
5912;SDS011;2982;42.684;23.356;2022-07-04T13:33:25;4.88;;;4.47;;
5912;SDS011;2982;42.684;23.356;2022-07-04T13:35:51;6.78;;;4.82;;
5912;SDS011;2982;42.684;23.356;2022-07-04T13:38:17;6.13;;;4.82;;
5912;SDS011;2982;42.684;23.356;2022-07-04T13:40:42;5.82;;;5.32;;
5912;SDS011;2982;42.684;23.356;2022-07-04T13:43:08;5.90;;;5.40;;
5912;SDS011;2982;42.684;23.356;2022-07-04T13:45:33;6.95;;;5.13;;
5912;SDS011;2982;42.684;23.356;2022-07-04T13:47:59;5.25;;;4.88;;
5912;SDS011;2982;42.684;23.356;2022-07-04T13:50:24;5.90;;;5.40;;
5912;SDS011;2982;42.684;23.356;2022-07-04T13:52:49;5.60;;;5.20;;
5912;SDS011;2982;42.684;23.356;2022-07-04T13:55:14;5.35;;;4.90;;
5912;SDS011;2982;42.684;23.356;2022-07-04T13:57:40;5.20;;;4.93;;
5912;SDS011;2982;42.684;23.356;2022-07-04T14:00:05;14.85;;;5.50;;
5912;SDS011;2982;42.684;23.356;2022-07-04T14:02:32;9.27;;;5.20;;
5912;SDS011;2982;42.684;23.356;2022-07-04T14:04:58;5.38;;;5.03;;
5912;SDS011;2982;42.684;23.356;2022-07-04T14:07:23;7.93;;;5.47;;
5912;SDS011;2982;42.684;23.356;2022-07-04T14:09:48;5.93;;;5.35;;
5912;SDS011;2982;42.684;23.356;2022-07-04T14:12:14;5.28;;;4.82;;
5912;SDS011;2982;42.684;23.356;2022-07-04T14:14:40;5.60;;;5.30;;
5912;SDS011;2982;42.684;23.356;2022-07-04T14:17:06;6.00;;;5.47;;
5912;SDS011;2982;42.684;23.356;2022-07-04T14:19:31;6.18;;;5.75;;
5912;SDS011;2982;42.684;23.356;2022-07-04T14:21:57;6.53;;;5.68;;
5912;SDS011;2982;42.684;23.356;2022-07-04T14:24:22;5.70;;;5.18;;
5912;SDS011;2982;42.684;23.356;2022-07-04T14:26:47;5.70;;;5.20;;
5912;SDS011;2982;42.684;23.356;2022-07-04T14:29:12;8.10;;;6.63;;
5912;SDS011;2982;42.684;23.356;2022-07-04T14:31:38;6.30;;;5.55;;
5912;SDS011;2982;42.684;23.356;2022-07-04T14:34:03;6.28;;;5.40;;
5912;SDS011;2982;42.684;23.356;2022-07-04T14:36:28;5.38;;;5.07;;
5912;SDS011;2982;42.684;23.356;2022-07-04T14:38:54;6.80;;;5.32;;
5912;SDS011;2982;42.684;23.356;2022-07-04T14:41:19;6.25;;;5.57;;
5912;SDS011;2982;42.684;23.356;2022-07-04T14:43:44;6.18;;;5.43;;
5912;SDS011;2982;42.684;23.356;2022-07-04T14:46:10;5.60;;;5.20;;
5912;SDS011;2982;42.684;23.356;2022-07-04T14:48:36;7.45;;;4.75;;
5912;SDS011;2982;42.684;23.356;2022-07-04T14:51:02;6.45;;;5.45;;
5912;SDS011;2982;42.684;23.356;2022-07-04T14:53:28;6.85;;;5.03;;
5912;SDS011;2982;42.684;23.356;2022-07-04T14:55:54;4.85;;;4.55;;
5912;SDS011;2982;42.684;23.356;2022-07-04T14:58:20;5.90;;;5.28;;
5912;SDS011;2982;42.684;23.356;2022-07-04T15:00:45;6.13;;;5.53;;
5912;SDS011;2982;42.684;23.356;2022-07-04T15:03:11;7.43;;;4.95;;
5912;SDS011;2982;42.684;23.356;2022-07-04T15:05:36;8.50;;;5.50;;
5912;SDS011;2982;42.684;23.356;2022-07-04T15:08:01;9.73;;;5.38;;
5912;SDS011;2982;42.684;23.356;2022-07-04T15:10:27;6.00;;;5.32;;
5912;SDS011;2982;42.684;23.356;2022-07-04T15:12:52;4.80;;;4.50;;
5912;SDS011;2982;42.684;23.356;2022-07-04T15:15:17;7.60;;;5.15;;
5912;SDS011;2982;42.684;23.356;2022-07-04T15:17:42;5.00;;;4.40;;
5912;SDS011;2982;42.684;23.356;2022-07-04T15:20:08;5.72;;;5.22;;
5912;SDS011;2982;42.684;23.356;2022-07-04T15:22:34;10.55;;;5.32;;